createdAt,value
2019-03-20T00:00:36.799Z,4.53
2019-03-20T00:03:05.519Z,4.50
2019-03-20T00:05:34.004Z,4.49
2019-03-20T00:08:02.506Z,4.49
2019-03-20T00:10:30.926Z,4.48
2019-03-20T00:12:59.389Z,4.47
2019-03-20T00:15:27.818Z,4.45
2019-03-20T00:17:56.292Z,4.43
2019-03-20T00:20:24.728Z,4.44
2019-03-20T00:22:53.152Z,4.47
2019-03-20T00:25:21.639Z,4.45
2019-03-20T00:27:50.602Z,4.47
2019-03-20T00:30:20.350Z,4.47
2019-03-20T00:32:49.027Z,4.48
2019-03-20T00:35:17.605Z,4.45
2019-03-20T00:37:46.008Z,4.43
2019-03-20T00:40:16.082Z,4.44
2019-03-20T00:42:44.547Z,4.42
2019-03-20T00:45:21.907Z,4.46
2019-03-20T00:47:50.655Z,4.50
2019-03-20T00:50:19.944Z,4.54
2019-03-20T00:52:48.549Z,4.58
2019-03-20T00:55:17.730Z,4.62
2019-03-20T00:57:46.356Z,4.64
2019-03-20T01:00:22.246Z,4.67
2019-03-20T01:02:50.927Z,4.66
2019-03-20T01:05:20.440Z,4.67
2019-03-20T01:07:48.981Z,4.69
2019-03-20T01:10:25.266Z,4.68
2019-03-20T01:12:53.882Z,4.69
2019-03-20T01:15:22.503Z,4.64
2019-03-20T01:17:50.931Z,4.64
2019-03-20T01:20:20.507Z,4.62
2019-03-20T01:22:49.007Z,4.59
2019-03-20T01:25:18.736Z,4.55
2019-03-20T01:27:47.295Z,4.55
2019-03-20T01:30:33.496Z,4.48
2019-03-20T01:33:04.092Z,4.42
2019-03-20T01:35:32.710Z,4.36
2019-03-20T01:38:01.190Z,4.29
2019-03-20T01:40:29.665Z,4.26
2019-03-20T01:42:58.208Z,4.26
2019-03-20T01:45:26.840Z,4.26
2019-03-20T01:47:55.397Z,4.29
2019-03-20T01:50:23.924Z,4.32
2019-03-20T01:52:52.424Z,4.32
2019-03-20T01:55:20.866Z,4.34
2019-03-20T01:57:49.295Z,4.41
2019-03-20T02:00:17.726Z,4.45
2019-03-20T02:02:46.173Z,4.44
2019-03-20T02:05:14.882Z,4.44
2019-03-20T02:07:43.316Z,4.44
2019-03-20T02:10:15.780Z,4.29
2019-03-20T02:12:44.308Z,4.29
2019-03-20T02:15:15.845Z,4.28
2019-03-20T02:17:44.378Z,4.26
2019-03-20T02:20:15.389Z,4.22
2019-03-20T02:22:43.901Z,4.21
2019-03-20T02:25:13.788Z,4.18
2019-03-20T02:27:42.256Z,4.19
2019-03-20T02:30:18.457Z,4.16
2019-03-20T02:32:46.880Z,4.13
2019-03-20T02:35:15.487Z,4.11
2019-03-20T02:37:44.884Z,4.10
2019-03-20T02:40:15.314Z,4.08
2019-03-20T02:42:44.004Z,4.07
2019-03-20T02:45:16.335Z,4.09
2019-03-20T02:47:44.800Z,4.04
2019-03-20T02:50:17.148Z,3.97
2019-03-20T02:52:45.597Z,3.94
2019-03-20T02:55:14.203Z,3.91
2019-03-20T02:57:42.628Z,3.88
2019-03-20T03:00:18.782Z,3.83
2019-03-20T03:02:47.238Z,3.78
2019-03-20T03:05:16.692Z,3.76
2019-03-20T03:07:45.151Z,3.70
2019-03-20T03:10:18.335Z,3.70
2019-03-20T03:12:46.831Z,3.70
2019-03-20T03:15:16.177Z,3.71
2019-03-20T03:17:44.852Z,3.71
2019-03-20T03:20:14.639Z,3.72
2019-03-20T03:22:43.090Z,3.72
2019-03-20T03:25:12.645Z,3.68
2019-03-20T03:27:41.088Z,3.68
2019-03-20T03:30:17.253Z,3.68
2019-03-20T03:32:45.870Z,3.66
2019-03-20T03:35:17.869Z,3.62
2019-03-20T03:37:44.651Z,3.61
2019-03-20T03:40:15.428Z,3.60
2019-03-20T03:42:43.924Z,3.57
2019-03-20T03:45:16.158Z,3.57
2019-03-20T03:47:44.871Z,3.56
2019-03-20T03:50:13.486Z,3.58
2019-03-20T03:52:41.921Z,3.59
2019-03-20T03:55:11.895Z,3.62
2019-03-20T03:57:40.390Z,3.65
2019-03-20T04:00:11.882Z,3.65
2019-03-20T04:02:40.346Z,3.63
2019-03-20T04:05:09.372Z,3.62
2019-03-20T04:07:37.793Z,3.65
2019-03-20T04:10:09.320Z,3.65
2019-03-20T04:12:37.832Z,3.64
2019-03-20T04:15:09.405Z,3.64
2019-03-20T04:17:37.915Z,3.60
2019-03-20T04:20:09.391Z,3.59
2019-03-20T04:22:37.816Z,3.59
2019-03-20T04:25:07.820Z,3.57
2019-03-20T04:27:36.245Z,3.54
2019-03-20T04:30:07.797Z,3.49
2019-03-20T04:32:36.219Z,3.49
2019-03-20T04:35:05.463Z,3.50
2019-03-20T04:37:34.108Z,3.52
2019-03-20T04:40:02.544Z,3.54
2019-03-20T04:42:30.980Z,3.51
2019-03-20T04:44:59.431Z,3.51
2019-03-20T04:47:28.106Z,3.52
2019-03-20T04:49:56.559Z,3.53
2019-03-20T04:52:24.996Z,3.52
2019-03-20T04:54:53.430Z,3.57
2019-03-20T04:57:21.882Z,3.59
2019-03-20T04:59:50.360Z,3.59
2019-03-20T05:02:18.779Z,3.59
2019-03-20T05:04:47.281Z,3.58
2019-03-20T05:07:15.691Z,3.55
2019-03-20T05:09:44.172Z,3.53
2019-03-20T05:12:12.638Z,3.51
2019-03-20T05:14:41.119Z,3.51
2019-03-20T05:17:09.565Z,3.50
2019-03-20T05:19:37.977Z,3.54
2019-03-20T05:22:06.442Z,3.56
2019-03-20T05:24:34.875Z,3.58
2019-03-20T05:27:03.356Z,3.58
2019-03-20T05:29:31.835Z,3.56
2019-03-20T05:32:00.385Z,3.56
2019-03-20T05:34:28.969Z,3.55
2019-03-20T05:36:57.444Z,3.59
2019-03-20T05:39:25.919Z,3.56
2019-03-20T05:41:54.417Z,3.64
2019-03-20T05:44:22.932Z,3.67
2019-03-20T05:46:51.419Z,3.67
2019-03-20T05:49:19.907Z,3.54
2019-03-20T05:51:48.379Z,3.73
2019-03-20T05:54:16.818Z,3.80
2019-03-20T05:56:45.314Z,3.84
2019-03-20T05:59:13.795Z,3.87
2019-03-20T06:01:42.238Z,3.92
2019-03-20T06:04:10.685Z,3.97
2019-03-20T06:06:39.123Z,3.98
2019-03-20T06:09:07.839Z,4.05
2019-03-20T06:11:36.217Z,4.11
2019-03-20T06:14:05.419Z,4.18
2019-03-20T06:16:33.876Z,4.31
2019-03-20T06:19:02.322Z,4.43
2019-03-20T06:21:30.758Z,4.49
2019-03-20T06:23:59.229Z,4.57
2019-03-20T06:26:27.562Z,4.62
2019-03-20T06:28:56.076Z,4.66
2019-03-20T06:31:24.702Z,4.70
2019-03-20T06:33:53.133Z,4.70
2019-03-20T06:36:21.694Z,4.70
2019-03-20T06:38:50.260Z,4.72
2019-03-20T06:41:18.708Z,4.73
2019-03-20T06:43:47.142Z,4.78
2019-03-20T06:46:15.582Z,4.84
2019-03-20T06:48:44.019Z,4.92
2019-03-20T06:51:12.453Z,4.98
2019-03-20T06:53:40.891Z,4.99
2019-03-20T06:56:09.365Z,5.07
2019-03-20T06:58:37.791Z,5.15
2019-03-20T07:01:18.403Z,5.20
2019-03-20T07:03:55.653Z,5.25
2019-03-20T07:06:32.480Z,5.33
2019-03-20T07:09:18.385Z,5.40
2019-03-20T07:11:47.564Z,5.46
2019-03-20T07:14:16.012Z,5.50
2019-03-20T07:16:44.446Z,5.57
2019-03-20T07:19:12.927Z,5.63
2019-03-20T07:21:41.394Z,5.72
2019-03-20T07:24:09.863Z,5.80
2019-03-20T07:26:38.295Z,5.80
2019-03-20T07:29:06.780Z,5.88
2019-03-20T07:31:35.242Z,6.06
2019-03-20T07:34:03.686Z,6.06
2019-03-20T07:36:32.147Z,6.13
2019-03-20T07:39:00.598Z,6.26
2019-03-20T07:41:29.112Z,6.35
2019-03-20T07:43:57.542Z,6.42
2019-03-20T07:46:25.978Z,6.49
2019-03-20T07:48:54.431Z,6.58
2019-03-20T07:51:22.877Z,6.65
2019-03-20T07:53:51.311Z,6.71
2019-03-20T07:56:19.943Z,6.87
2019-03-20T07:58:48.441Z,6.87
2019-03-20T08:01:16.923Z,7.00
2019-03-20T08:03:45.358Z,7.08
2019-03-20T08:06:13.970Z,7.04
2019-03-20T08:08:42.761Z,7.29
2019-03-20T08:11:11.196Z,7.41
2019-03-20T08:13:39.757Z,7.54
2019-03-20T08:16:08.191Z,7.68
2019-03-20T08:18:36.637Z,7.80
2019-03-20T08:21:05.134Z,7.90
2019-03-20T08:23:33.695Z,8.03
2019-03-20T08:26:02.092Z,8.15
2019-03-20T08:28:30.518Z,8.24
2019-03-20T08:30:58.986Z,8.37
2019-03-20T08:33:27.448Z,8.49
2019-03-20T08:35:55.893Z,8.62
2019-03-20T08:38:24.355Z,8.67
2019-03-20T08:40:52.781Z,8.83
2019-03-20T08:43:21.237Z,8.99
2019-03-20T08:45:49.717Z,9.13
2019-03-20T08:48:18.151Z,9.25
2019-03-20T08:50:46.576Z,9.36
2019-03-20T08:53:14.999Z,9.43
2019-03-20T08:55:43.460Z,9.54
2019-03-20T08:58:11.890Z,9.67
2019-03-20T09:00:40.419Z,9.73
2019-03-20T09:03:08.847Z,9.82
2019-03-20T09:05:37.294Z,9.89
2019-03-20T09:08:05.742Z,10.00
2019-03-20T09:10:34.226Z,10.06
2019-03-20T09:13:02.731Z,10.14
2019-03-20T09:15:31.126Z,10.19
2019-03-20T09:17:59.584Z,10.25
2019-03-20T09:20:28.025Z,10.32
2019-03-20T09:22:56.510Z,10.38
2019-03-20T09:25:26.756Z,10.40
2019-03-20T09:27:55.152Z,10.43
2019-03-20T09:30:24.643Z,10.42
2019-03-20T09:32:53.095Z,10.48
2019-03-20T09:35:21.637Z,10.56
2019-03-20T09:37:52.215Z,10.61
2019-03-20T09:40:25.032Z,10.65
2019-03-20T09:42:53.658Z,10.71
2019-03-20T09:45:23.009Z,10.77
2019-03-20T09:47:51.438Z,10.88
2019-03-20T09:50:24.079Z,10.93
2019-03-20T09:52:52.820Z,11.00
2019-03-20T09:55:21.278Z,11.07
2019-03-20T09:57:50.029Z,11.12
2019-03-20T10:00:25.588Z,11.22
2019-03-20T10:02:54.422Z,11.37
2019-03-20T10:05:22.971Z,11.51
2019-03-20T10:07:51.666Z,11.66
2019-03-20T10:10:24.180Z,11.79
2019-03-20T10:12:52.981Z,11.81
2019-03-20T10:15:26.484Z,11.82
2019-03-20T10:17:54.922Z,11.93
2019-03-20T10:20:23.910Z,12.01
2019-03-20T10:22:52.602Z,12.09
2019-03-20T10:25:21.049Z,12.16
2019-03-20T10:27:51.839Z,12.20
2019-03-20T10:30:27.305Z,12.35
2019-03-20T10:32:55.889Z,12.45
2019-03-20T10:35:24.338Z,12.55
2019-03-20T10:37:52.951Z,12.59
2019-03-20T10:40:24.810Z,12.47
2019-03-20T10:42:53.267Z,12.74
2019-03-20T10:45:22.262Z,12.83
2019-03-20T10:47:52.950Z,12.95
2019-03-20T10:50:25.198Z,13.12
2019-03-20T10:52:53.831Z,13.24
2019-03-20T10:55:22.557Z,13.26
2019-03-20T10:57:50.991Z,13.31
2019-03-20T11:00:23.293Z,13.38
2019-03-20T11:02:52.079Z,13.49
2019-03-20T11:05:20.994Z,13.49
2019-03-20T11:07:49.781Z,13.46
2019-03-20T11:10:28.197Z,13.31
2019-03-20T11:12:56.771Z,13.35
2019-03-20T11:15:26.337Z,13.47
2019-03-20T11:17:54.830Z,13.58
2019-03-20T11:20:24.515Z,13.47
2019-03-20T11:22:53.142Z,13.32
2019-03-20T11:25:28.479Z,13.23
2019-03-20T11:27:57.024Z,13.27
2019-03-20T11:30:30.125Z,13.49
2019-03-20T11:32:58.815Z,13.63
2019-03-20T11:35:27.696Z,13.73
2019-03-20T11:37:56.192Z,13.60
2019-03-20T11:40:35.502Z,13.56
2019-03-20T11:43:04.331Z,13.38
2019-03-20T11:45:32.862Z,13.57
2019-03-20T11:48:01.310Z,13.53
2019-03-20T11:50:40.783Z,13.52
2019-03-20T11:53:09.954Z,13.40
2019-03-20T11:55:38.729Z,13.29
2019-03-20T11:58:07.796Z,13.30
2019-03-20T12:00:36.424Z,13.27
2019-03-20T12:03:05.537Z,13.17
2019-03-20T12:05:33.966Z,13.07
2019-03-20T12:08:02.517Z,13.05
2019-03-20T12:10:32.201Z,12.99
2019-03-20T12:13:00.707Z,13.01
2019-03-20T12:15:29.914Z,12.97
2019-03-20T12:17:58.399Z,12.89
2019-03-20T12:20:26.935Z,12.96
2019-03-20T12:22:55.364Z,13.10
2019-03-20T12:25:29.220Z,13.22
2019-03-20T12:27:57.832Z,13.38
2019-03-20T12:30:31.825Z,13.44
2019-03-20T12:33:00.270Z,13.37
2019-03-20T12:35:34.380Z,13.23
2019-03-20T12:38:13.644Z,13.07
2019-03-20T12:40:33.146Z,13.09
2019-03-20T12:43:01.768Z,13.13
2019-03-20T12:45:37.042Z,13.22
2019-03-20T12:48:07.446Z,13.27
2019-03-20T12:50:35.944Z,13.37
2019-03-20T12:53:05.449Z,13.35
2019-03-20T12:55:34.062Z,13.38
2019-03-20T12:58:02.571Z,13.39
2019-03-20T13:00:31.202Z,13.42
2019-03-20T13:02:59.631Z,13.55
2019-03-20T13:05:28.787Z,13.68
2019-03-20T13:08:05.345Z,13.71
2019-03-20T13:10:28.234Z,13.75
2019-03-20T13:12:56.766Z,13.79
2019-03-20T13:15:29.094Z,13.78
2019-03-20T13:17:58.022Z,13.70
2019-03-20T13:20:26.829Z,13.65
2019-03-20T13:23:06.989Z,13.62
2019-03-20T13:25:35.490Z,13.61
2019-03-20T13:28:04.157Z,13.51
2019-03-20T13:30:39.071Z,13.37
2019-03-20T13:33:07.567Z,13.31
2019-03-20T13:35:36.010Z,13.34
2019-03-20T13:38:04.551Z,13.39
2019-03-20T13:40:32.977Z,13.42
2019-03-20T13:43:01.436Z,13.36
2019-03-20T13:45:29.962Z,13.32
2019-03-20T13:47:58.464Z,13.30
2019-03-20T13:50:27.028Z,13.28
2019-03-20T13:52:55.504Z,13.27
2019-03-20T13:55:23.966Z,13.28
2019-03-20T13:57:52.539Z,13.32
2019-03-20T14:00:27.522Z,13.34
2019-03-20T14:02:55.962Z,13.38
2019-03-20T14:05:24.480Z,13.39
2019-03-20T14:07:53.088Z,13.40
2019-03-20T14:10:25.941Z,13.35
2019-03-20T14:12:54.674Z,13.30
2019-03-20T14:15:23.117Z,13.29
2019-03-20T14:17:52.027Z,13.29
2019-03-20T14:20:26.377Z,13.32
2019-03-20T14:22:54.993Z,13.29
2019-03-20T14:25:23.811Z,13.28
2019-03-20T14:27:52.897Z,13.28
2019-03-20T14:30:27.313Z,13.29
2019-03-20T14:32:56.134Z,13.31
2019-03-20T14:35:24.842Z,13.34
2019-03-20T14:37:53.643Z,13.31
2019-03-20T14:40:36.071Z,13.21
2019-03-20T14:43:00.185Z,13.11
2019-03-20T14:45:28.654Z,13.00
2019-03-20T14:47:57.082Z,12.99
2019-03-20T14:50:26.686Z,13.01
2019-03-20T14:52:55.301Z,13.07
2019-03-20T14:55:24.639Z,13.09
2019-03-20T14:57:53.685Z,13.11
2019-03-20T15:00:30.038Z,13.12
2019-03-20T15:02:58.632Z,13.07
2019-03-20T15:05:27.185Z,12.95
2019-03-20T15:07:55.671Z,12.95
2019-03-20T15:10:27.765Z,12.93
2019-03-20T15:12:56.841Z,12.93
2019-03-20T15:15:43.570Z,12.94
2019-03-20T15:18:12.052Z,12.95
2019-03-20T15:20:40.494Z,13.02
2019-03-20T15:23:08.934Z,13.09
2019-03-20T15:25:37.467Z,13.10
2019-03-20T15:28:05.981Z,13.14
2019-03-20T15:30:34.446Z,13.14
2019-03-20T15:33:02.905Z,13.08
2019-03-20T15:35:31.335Z,13.05
2019-03-20T15:37:59.896Z,13.04
2019-03-20T15:40:30.246Z,13.04
2019-03-20T15:42:58.692Z,13.06
2019-03-20T15:45:27.201Z,13.06
2019-03-20T15:47:55.947Z,13.03
2019-03-20T15:50:28.126Z,13.00
2019-03-20T15:52:56.597Z,12.97
2019-03-20T15:55:33.073Z,12.45
2019-03-20T15:58:01.778Z,12.89
2019-03-20T16:00:30.216Z,12.86
2019-03-20T16:03:18.281Z,12.85
2019-03-20T16:05:46.820Z,12.84
2019-03-20T16:08:15.220Z,12.81
2019-03-20T16:10:43.790Z,12.79
2019-03-20T16:13:12.293Z,12.76
2019-03-20T16:15:40.774Z,12.72
2019-03-20T16:18:09.297Z,12.65
2019-03-20T16:20:37.835Z,12.60
2019-03-20T16:23:06.292Z,12.60
2019-03-20T16:25:35.123Z,12.60
2019-03-20T16:28:03.583Z,12.58
2019-03-20T16:30:32.889Z,12.61
2019-03-20T16:33:01.365Z,12.57
2019-03-20T16:35:29.819Z,12.56
2019-03-20T16:37:58.268Z,12.53
2019-03-20T16:40:28.352Z,12.54
2019-03-20T16:42:56.775Z,12.53
2019-03-20T16:45:33.435Z,12.51
2019-03-20T16:48:01.973Z,12.47
2019-03-20T16:50:30.433Z,12.42
2019-03-20T16:52:58.913Z,12.41
2019-03-20T16:55:27.455Z,12.39
2019-03-20T16:57:55.946Z,12.31
2019-03-20T17:00:32.089Z,12.36
2019-03-20T17:03:00.644Z,12.31
2019-03-20T17:05:30.116Z,12.33
2019-03-20T17:07:58.618Z,12.30
2019-03-20T17:10:39.002Z,12.30
2019-03-20T17:13:07.432Z,12.30
2019-03-20T17:15:41.210Z,12.28
2019-03-20T17:18:09.740Z,12.27
2019-03-20T17:20:38.199Z,12.25
2019-03-20T17:23:07.890Z,12.24
2019-03-20T17:25:36.855Z,12.24
2019-03-20T17:28:05.631Z,12.25
2019-03-20T17:30:38.770Z,12.23
2019-03-20T17:33:07.948Z,12.19
2019-03-20T17:35:36.395Z,12.20
2019-03-20T17:38:05.462Z,12.18
2019-03-20T17:40:33.918Z,12.17
2019-03-20T17:43:02.645Z,12.15
2019-03-20T17:45:32.220Z,12.10
2019-03-20T17:48:00.813Z,12.00
2019-03-20T17:50:35.873Z,11.91
2019-03-20T17:53:06.175Z,11.81
2019-03-20T17:55:34.635Z,11.73
2019-03-20T17:58:03.183Z,11.65
2019-03-20T18:00:46.143Z,11.60
2019-03-20T18:03:16.231Z,11.56
2019-03-20T18:05:44.646Z,11.52
2019-03-20T18:08:13.112Z,11.51
2019-03-20T18:10:41.596Z,11.50
2019-03-20T18:13:10.119Z,11.51
2019-03-20T18:15:38.741Z,11.52
2019-03-20T18:18:08.004Z,11.53
2019-03-20T18:20:37.280Z,11.54
2019-03-20T18:23:06.469Z,11.53
2019-03-20T18:25:34.946Z,11.52
2019-03-20T18:28:03.399Z,11.51
2019-03-20T18:30:42.873Z,11.49
2019-03-20T18:33:11.381Z,11.46
2019-03-20T18:35:39.830Z,11.46
2019-03-20T18:38:08.650Z,11.46
2019-03-20T18:40:37.124Z,11.46
2019-03-20T18:43:06.155Z,11.44
2019-03-20T18:45:34.771Z,11.46
2019-03-20T18:48:03.269Z,11.43
2019-03-20T18:50:31.871Z,11.44
2019-03-20T18:53:00.316Z,11.40
2019-03-20T18:55:28.751Z,11.37
2019-03-20T18:57:57.196Z,11.33
2019-03-20T19:00:27.958Z,11.28
2019-03-20T19:03:02.027Z,11.25
2019-03-20T19:05:50.456Z,11.19
2019-03-20T19:08:18.901Z,11.10
2019-03-20T19:10:47.830Z,11.02
2019-03-20T19:13:16.301Z,10.96
2019-03-20T19:15:44.836Z,10.88
2019-03-20T19:18:13.277Z,10.81
2019-03-20T19:20:42.023Z,10.72
2019-03-20T19:23:10.554Z,10.64
2019-03-20T19:25:39.031Z,10.58
2019-03-20T19:28:07.493Z,10.53
2019-03-20T19:30:36.010Z,10.46
2019-03-20T19:33:05.227Z,10.43
2019-03-20T19:35:33.678Z,10.37
2019-03-20T19:38:02.139Z,10.35
2019-03-20T19:40:30.641Z,10.37
2019-03-20T19:42:59.334Z,10.42
2019-03-20T19:45:27.799Z,10.50
2019-03-20T19:47:56.241Z,10.56
2019-03-20T19:50:25.162Z,10.63
2019-03-20T19:52:54.012Z,10.67
2019-03-20T19:55:22.465Z,10.70
2019-03-20T19:57:50.925Z,10.71
2019-03-20T20:00:26.495Z,10.73
2019-03-20T20:02:55.110Z,10.76
2019-03-20T20:05:23.607Z,10.77
2019-03-20T20:07:52.063Z,10.77
2019-03-20T20:10:20.937Z,10.77
2019-03-20T20:12:49.470Z,10.80
2019-03-20T20:15:34.453Z,10.79
2019-03-20T20:18:03.032Z,10.79
2019-03-20T20:20:39.869Z,10.79
2019-03-20T20:23:08.319Z,10.73
2019-03-20T20:25:36.753Z,10.68
2019-03-20T20:28:05.373Z,10.67
2019-03-20T20:30:35.351Z,10.67
2019-03-20T20:33:04.367Z,10.68
2019-03-20T20:35:32.846Z,10.69
2019-03-20T20:38:01.300Z,10.74
2019-03-20T20:40:30.623Z,10.79
2019-03-20T20:42:59.080Z,10.84
2019-03-20T20:45:27.522Z,10.86
2019-03-20T20:47:55.984Z,10.87
2019-03-20T20:50:24.664Z,10.85
2019-03-20T20:52:53.280Z,10.84
2019-03-20T20:55:22.834Z,10.82
2019-03-20T20:57:51.409Z,10.87
2019-03-20T21:00:23.280Z,10.90
2019-03-20T21:02:53.528Z,10.92
2019-03-20T21:05:22.054Z,10.96
2019-03-20T21:07:50.524Z,10.99
2019-03-20T21:10:25.689Z,11.02
2019-03-20T21:12:57.154Z,11.02
2019-03-20T21:15:35.357Z,10.95
2019-03-20T21:18:15.599Z,10.94
2019-03-20T21:20:48.834Z,10.88
2019-03-20T21:23:39.657Z,10.89
2019-03-20T21:26:10.246Z,10.89
2019-03-20T21:29:15.127Z,10.87
2019-03-20T21:31:55.554Z,10.84
2019-03-20T21:34:56.001Z,10.81
2019-03-20T21:37:39.274Z,10.81
2019-03-20T21:40:10.264Z,10.78
2019-03-20T21:42:51.980Z,10.78
2019-03-20T21:45:40.992Z,10.79
2019-03-20T21:48:09.571Z,10.81
2019-03-20T21:50:57.334Z,10.80
2019-03-20T21:53:48.642Z,10.81
2019-03-20T21:56:28.692Z,10.80
2019-03-20T21:59:20.691Z,10.77
2019-03-20T22:02:11.655Z,10.75
2019-03-20T22:04:40.188Z,10.76
2019-03-20T22:07:11.209Z,10.73
2019-03-20T22:09:54.638Z,10.78
2019-03-20T22:12:35.523Z,10.81
2019-03-20T22:15:15.866Z,10.84
2019-03-20T22:18:02.333Z,10.85
2019-03-20T22:20:46.222Z,10.84
2019-03-20T22:23:20.632Z,10.83
2019-03-20T22:26:13.896Z,10.81
2019-03-20T22:29:01.670Z,10.79
2019-03-20T22:31:33.135Z,10.73
2019-03-20T22:34:40.074Z,10.74
2019-03-20T22:37:08.533Z,10.74
2019-03-20T22:39:58.077Z,10.73
2019-03-20T22:42:46.043Z,10.76
2019-03-20T22:45:32.448Z,10.76
2019-03-20T22:48:26.840Z,10.75
2019-03-20T22:51:07.587Z,10.77
2019-03-20T22:53:55.643Z,10.78
2019-03-20T22:56:42.302Z,10.79
2019-03-20T22:59:10.760Z,10.77
2019-03-20T23:01:42.279Z,10.79
2019-03-20T23:04:19.409Z,10.83
2019-03-20T23:06:47.959Z,10.85
2019-03-20T23:09:17.505Z,10.82
2019-03-20T23:11:45.948Z,10.84
2019-03-20T23:14:14.395Z,10.86
2019-03-20T23:16:42.878Z,10.86
2019-03-20T23:19:11.327Z,10.89
2019-03-20T23:21:40.136Z,10.89
2019-03-20T23:24:08.599Z,10.88
2019-03-20T23:26:37.039Z,10.87
2019-03-20T23:29:05.520Z,10.86
2019-03-20T23:31:33.979Z,10.86
2019-03-20T23:34:02.423Z,10.89
2019-03-20T23:36:31.503Z,10.90
2019-03-20T23:38:59.929Z,10.91
2019-03-20T23:41:28.372Z,10.89
2019-03-20T23:43:56.852Z,10.89
2019-03-20T23:46:25.333Z,10.90
2019-03-20T23:48:59.776Z,10.87
2019-03-20T23:51:30.349Z,10.85
2019-03-20T23:53:59.445Z,10.86
2019-03-20T23:56:31.152Z,10.83
2019-03-20T23:58:59.602Z,10.81
